Time;durP1;ratioP1;P1;durP2;ratioP2;P2;SDS_P1;SDS_P2;PMS_P1;PMS_P2;Temp;Humidity;BMP_temperature;BMP_pressure;BME280_temperature;BME280_humidity;BME280_pressure;Samples;Min_cycle;Max_cycle;Signal;HPM_P1;HPM_P2
2021/12/27 00:01:06;;;;;;;21.52;12.40;;;-0.60;99.90;;;;;;5053833;28;20080;-72
2021/12/27 00:03:32;;;;;;;27.90;12.90;;;-0.60;99.90;;;;;;5074314;28;20048;-72
2021/12/27 00:05:58;;;;;;;22.48;12.80;;;-0.60;99.90;;;;;;5057027;28;20060;-72
2021/12/27 00:08:24;;;;;;;21.60;12.10;;;-0.60;99.90;;;;;;5085109;28;20042;-72
2021/12/27 00:10:51;;;;;;;22.98;12.40;;;-0.60;99.90;;;;;;5047099;28;20075;-72
2021/12/27 00:13:16;;;;;;;22.98;11.90;;;-0.50;99.90;;;;;;5071737;28;20053;-72
2021/12/27 00:15:43;;;;;;;25.10;12.70;;;-0.50;99.90;;;;;;5053097;28;20049;-72
2021/12/27 00:18:10;;;;;;;22.30;12.68;;;-0.60;99.90;;;;;;5043280;28;20044;-72
2021/12/27 00:20:36;;;;;;;22.58;12.88;;;-0.50;99.90;;;;;;5058260;28;20156;-72
2021/12/27 00:23:02;;;;;;;21.10;13.05;;;-0.30;99.90;;;;;;5074860;28;20045;-71
2021/12/27 00:25:29;;;;;;;22.98;13.10;;;-0.50;99.90;;;;;;5047632;28;20067;-72
2021/12/27 00:27:55;;;;;;;26.60;14.00;;;-0.40;99.90;;;;;;5079814;28;20053;-71
2021/12/27 00:30:22;;;;;;;21.63;12.90;;;-0.50;99.90;;;;;;5056356;28;20053;-73
2021/12/27 00:32:49;;;;;;;22.27;11.95;;;-0.50;99.90;;;;;;5037557;28;20040;-72
2021/12/27 00:35:18;;;;;;;22.40;12.25;;;-0.50;99.90;;;;;;5056549;28;20593;-72
2021/12/27 00:37:44;;;;;;;25.17;14.25;;;-0.20;99.90;;;;;;5058849;28;20044;-72
2021/12/27 00:40:11;;;;;;;19.00;11.95;;;-0.50;99.90;;;;;;5055312;28;20068;-72
2021/12/27 00:42:38;;;;;;;24.30;12.52;;;-0.50;99.90;;;;;;5058863;28;20041;-72
2021/12/27 00:45:04;;;;;;;23.38;13.57;;;-0.50;99.90;;;;;;5055484;28;20045;-72
2021/12/27 00:47:30;;;;;;;22.65;13.07;;;-0.50;99.90;;;;;;5057517;28;20053;-72
2021/12/27 00:49:56;;;;;;;23.83;13.25;;;-0.50;99.90;;;;;;5078327;28;20157;-72
2021/12/27 00:52:22;;;;;;;25.73;12.90;;;-0.50;99.90;;;;;;5055513;28;20040;-71
2021/12/27 00:54:48;;;;;;;23.67;13.23;;;-0.40;99.90;;;;;;5090841;28;20044;-72
2021/12/27 00:57:13;;;;;;;22.95;12.68;;;-0.40;99.90;;;;;;5078460;28;20080;-72
2021/12/27 00:59:39;;;;;;;25.23;13.18;;;-0.40;99.90;;;;;;5039040;28;20053;-72
2021/12/27 01:02:05;;;;;;;24.52;13.48;;;-0.40;99.90;;;;;;5051061;28;20600;-72
2021/12/27 01:04:30;;;;;;;28.60;14.05;;;-0.50;99.90;;;;;;5057180;28;20052;-72
2021/12/27 01:06:56;;;;;;;28.15;14.23;;;-0.50;99.90;;;;;;5081987;28;20060;-71
2021/12/27 01:09:35;;;;;;;23.73;13.88;;;-0.50;99.90;;;;;;5053056;28;20049;-72
2021/12/27 01:14:55;;;;;;;25.25;13.38;;;-0.50;99.90;;;;;;5053772;28;20140;-72
2021/12/27 01:17:21;;;;;;;26.35;14.13;;;-0.20;99.90;;;;;;5058992;28;20041;-72
2021/12/27 01:19:46;;;;;;;23.23;13.07;;;-0.50;99.90;;;;;;5073530;28;20064;-72
2021/12/27 01:22:12;;;;;;;26.73;13.48;;;-0.50;99.90;;;;;;5053354;28;20041;-72
2021/12/27 01:24:38;;;;;;;23.98;14.50;;;-0.50;99.90;;;;;;5051193;28;20101;-72
2021/12/27 01:27:03;;;;;;;24.05;12.63;;;-0.40;99.90;;;;;;5088415;28;20060;-72
2021/12/27 01:29:29;;;;;;;30.83;18.73;;;-0.40;99.90;;;;;;5068724;28;20087;-73
2021/12/27 01:31:55;;;;;;;27.27;15.10;;;-0.50;99.90;;;;;;5070450;28;20429;-72
2021/12/27 01:34:23;;;;;;;25.40;13.18;;;-0.40;99.90;;;;;;5046983;28;20056;-72
2021/12/27 01:36:49;;;;;;;24.35;13.82;;;-0.50;99.90;;;;;;5055918;28;20420;-73
2021/12/27 01:39:15;;;;;;;23.77;14.38;;;1.10;99.90;;;;;;5056507;28;20094;-72
2021/12/27 01:41:40;;;;;;;22.38;12.43;;;-0.40;99.90;;;;;;5039718;28;20049;-72
2021/12/27 01:44:06;;;;;;;25.52;13.75;;;-0.50;99.90;;;;;;5072031;28;20049;-72
2021/12/27 01:46:32;;;;;;;22.75;12.60;;;-0.40;99.90;;;;;;5051758;28;20461;-72
2021/12/27 01:48:59;;;;;;;25.92;13.73;;;-0.50;99.90;;;;;;5074534;28;20056;-73
2021/12/27 01:51:28;;;;;;;24.63;13.93;;;-0.50;99.90;;;;;;5053927;28;20064;-72
2021/12/27 01:53:55;;;;;;;23.92;13.15;;;-0.40;99.90;;;;;;5036454;28;20049;-72
2021/12/27 01:56:22;;;;;;;24.50;13.57;;;-0.40;99.90;;;;;;5056321;28;20053;-72
2021/12/27 01:58:50;;;;;;;29.27;15.23;;;-0.40;99.90;;;;;;5057085;28;20056;-72
2021/12/27 02:01:17;;;;;;;26.50;14.85;;;-0.40;99.90;;;;;;5068784;28;20042;-72
2021/12/27 02:03:43;;;;;;;25.50;14.57;;;-0.40;99.90;;;;;;5052655;28;20073;-72
2021/12/27 02:06:11;;;;;;;23.95;12.65;;;-0.40;99.90;;;;;;5053737;28;20118;-72
2021/12/27 02:08:41;;;;;;;24.83;14.95;;;-0.30;99.90;;;;;;5056578;28;20041;-72
2021/12/27 02:11:07;;;;;;;23.23;13.23;;;-0.40;99.90;;;;;;5053959;28;20048;-71
2021/12/27 02:13:34;;;;;;;29.25;14.05;;;-0.30;99.90;;;;;;5055304;28;20049;-72
2021/12/27 02:16:00;;;;;;;27.27;14.05;;;-0.40;99.90;;;;;;5055278;28;20045;-72
2021/12/27 02:18:25;;;;;;;29.88;14.63;;;-0.30;99.90;;;;;;5036972;28;20037;-72
2021/12/27 02:20:51;;;;;;;25.73;13.65;;;-0.30;99.90;;;;;;5039894;28;20088;-72
2021/12/27 02:23:18;;;;;;;25.25;13.15;;;-0.30;99.90;;;;;;5077484;28;20139;-72
2021/12/27 02:25:49;;;;;;;25.35;14.05;;;-0.30;99.90;;;;;;5049112;28;20056;-71
2021/12/27 02:28:17;;;;;;;24.08;14.25;;;-0.30;99.90;;;;;;5081314;28;20141;-71
2021/12/27 02:30:44;;;;;;;27.60;13.85;;;-0.20;99.90;;;;;;5055850;28;20083;-72
2021/12/27 02:33:11;;;;;;;25.38;13.55;;;-0.20;99.90;;;;;;5040068;28;20050;-72
2021/12/27 02:36:11;;;;;;;25.38;13.98;;;-1.20;99.90;;;;;;5053985;28;20049;-73
2021/12/27 02:38:39;;;;;;;27.33;14.77;;;-0.20;99.90;;;;;;5059996;28;20154;-73
2021/12/27 02:41:06;;;;;;;25.45;13.75;;;-0.20;99.90;;;;;;5051774;28;20573;-72
2021/12/27 02:43:33;;;;;;;24.25;13.60;;;-0.20;99.90;;;;;;5059359;28;20449;-72
2021/12/27 02:46:02;;;;;;;24.63;13.73;;;-0.20;99.90;;;;;;5061094;28;20082;-72
2021/12/27 02:48:31;;;;;;;25.02;13.73;;;-0.20;99.90;;;;;;5022904;28;20115;-72
2021/12/27 02:50:57;;;;;;;27.08;13.27;;;-0.20;99.90;;;;;;5059695;28;20049;-72
2021/12/27 02:53:24;;;;;;;24.25;13.70;;;-0.20;99.90;;;;;;5091466;28;20049;-72
2021/12/27 02:55:52;;;;;;;26.38;14.43;;;-0.30;99.90;;;;;;5060194;28;20059;-72
2021/12/27 02:58:18;;;;;;;23.75;13.95;;;-0.20;99.90;;;;;;5072947;28;20051;-71
2021/12/27 03:01:18;;;;;;;26.27;14.32;;;-0.30;99.90;;;;;;5057210;28;20390;-72
2021/12/27 03:03:44;;;;;;;26.55;14.80;;;-0.20;99.90;;;;;;5061912;28;20091;-72
2021/12/27 03:06:10;;;;;;;28.15;14.00;;;-0.30;99.90;;;;;;5078756;28;20113;-72
2021/12/27 03:08:38;;;;;;;26.60;14.05;;;-0.30;99.90;;;;;;5049432;28;20096;-72
2021/12/27 03:11:05;;;;;;;25.95;14.73;;;-0.20;99.90;;;;;;5041351;28;20412;-72
2021/12/27 03:13:34;;;;;;;24.77;14.27;;;-0.20;99.90;;;;;;5060465;28;20033;-72
2021/12/27 03:16:06;;;;;;;29.20;14.63;;;-0.20;99.90;;;;;;5092886;28;20048;-71
2021/12/27 03:18:34;;;;;;;26.55;14.40;;;-0.20;99.90;;;;;;5057510;28;20052;-72
2021/12/27 03:21:00;;;;;;;26.13;15.30;;;0.00;99.90;;;;;;5061120;28;20052;-72
2021/12/27 03:23:26;;;;;;;26.55;14.20;;;-0.30;99.90;;;;;;5056913;28;20041;-71
2021/12/27 03:25:53;;;;;;;25.23;14.10;;;-0.20;99.90;;;;;;5059709;28;20228;-72
2021/12/27 03:28:19;;;;;;;28.77;15.18;;;-0.20;99.90;;;;;;5056665;28;20059;-71
2021/12/27 03:30:45;;;;;;;24.77;14.02;;;-0.20;99.90;;;;;;5058539;28;20053;-71
2021/12/27 03:33:12;;;;;;;30.27;15.48;;;-0.20;99.90;;;;;;5052636;28;20056;-71
2021/12/27 03:35:40;;;;;;;23.25;14.15;;;-0.30;99.90;;;;;;5085433;28;20401;-72
2021/12/27 03:38:11;;;;;;;23.52;13.55;;;-0.20;99.90;;;;;;5090609;28;20091;-71
2021/12/27 03:40:41;;;;;;;27.35;15.07;;;-0.20;99.90;;;;;;5090170;28;20096;-72
2021/12/27 03:43:07;;;;;;;26.08;14.63;;;-0.20;99.90;;;;;;5075976;28;20045;-72
2021/12/27 03:45:35;;;;;;;26.08;14.38;;;-0.20;99.90;;;;;;5039321;28;20041;-72
2021/12/27 03:48:03;;;;;;;31.10;15.52;;;-0.20;99.90;;;;;;5071320;28;20053;-72
2021/12/27 03:50:29;;;;;;;25.88;14.73;;;-0.20;99.90;;;;;;5057707;28;20575;-72
2021/12/27 03:52:57;;;;;;;28.50;14.38;;;-0.10;99.90;;;;;;5058678;28;20636;-72
2021/12/27 03:55:24;;;;;;;24.15;14.32;;;-0.10;99.90;;;;;;5058798;28;20048;-72
2021/12/27 03:57:55;;;;;;;25.08;14.63;;;0.30;99.90;;;;;;5056036;28;20408;-72
2021/12/27 04:00:46;;;;;;;26.65;14.20;;;-0.10;99.90;;;;;;5059593;28;20693;-72
2021/12/27 04:03:14;;;;;;;27.58;14.40;;;-0.10;99.90;;;;;;5020279;28;20061;-71
2021/12/27 04:05:39;;;;;;;24.95;13.90;;;-0.10;99.90;;;;;;5057126;28;20071;-71
2021/12/27 04:08:09;;;;;;;25.55;14.60;;;-0.10;99.90;;;;;;5059576;28;20041;-72
2021/12/27 04:10:40;;;;;;;27.88;15.13;;;-0.40;99.90;;;;;;5089739;28;20492;-71
2021/12/27 04:13:08;;;;;;;27.83;15.18;;;-0.10;99.90;;;;;;5042225;28;20056;-72
2021/12/27 04:15:34;;;;;;;26.65;14.25;;;-0.10;99.90;;;;;;5080673;28;20049;-72
2021/12/27 04:18:01;;;;;;;26.50;14.65;;;-0.10;99.90;;;;;;5049069;28;20036;-72
2021/12/27 04:20:27;;;;;;;25.20;14.65;;;-0.10;99.90;;;;;;5041093;28;20552;-71
2021/12/27 04:22:53;;;;;;;25.33;14.75;;;-0.10;99.90;;;;;;5056158;28;20051;-72
2021/12/27 04:25:20;;;;;;;25.30;14.18;;;-0.10;99.90;;;;;;5058203;28;20072;-71
2021/12/27 04:27:47;;;;;;;33.78;14.80;;;-0.10;99.90;;;;;;5056331;28;20549;-71
2021/12/27 04:30:15;;;;;;;25.60;14.35;;;-0.10;99.90;;;;;;5058689;28;20049;-72
2021/12/27 04:32:41;;;;;;;27.13;15.10;;;0.00;99.90;;;;;;5056975;28;20049;-72
2021/12/27 04:35:07;;;;;;;23.58;15.15;;;-0.10;99.90;;;;;;5058798;28;20126;-72
2021/12/27 04:37:33;;;;;;;26.15;14.65;;;-0.10;99.90;;;;;;5039355;28;20090;-71
2021/12/27 04:40:00;;;;;;;27.55;14.52;;;-0.10;99.90;;;;;;5053555;28;20052;-72
2021/12/27 04:42:29;;;;;;;30.88;15.00;;;0.20;99.90;;;;;;5055601;28;20052;-72
2021/12/27 04:44:55;;;;;;;25.25;14.98;;;-0.10;99.90;;;;;;5054282;28;20048;-72
2021/12/27 04:47:21;;;;;;;26.80;15.20;;;-0.10;99.90;;;;;;5040328;28;20060;-72
2021/12/27 04:49:47;;;;;;;26.10;14.68;;;-0.20;99.90;;;;;;5057817;28;20048;-72
2021/12/27 04:52:12;;;;;;;26.55;15.73;;;-0.10;99.90;;;;;;5037166;28;20064;-71
2021/12/27 04:54:39;;;;;;;28.27;16.27;;;0.00;99.90;;;;;;5044155;28;20040;-71
2021/12/27 04:57:05;;;;;;;24.23;14.60;;;0.30;99.90;;;;;;5055068;28;20079;-71
2021/12/27 04:59:31;;;;;;;26.45;13.55;;;-0.10;99.90;;;;;;5056977;28;20060;-72
2021/12/27 05:01:57;;;;;;;27.77;14.63;;;-0.10;99.90;;;;;;5054946;28;20048;-71
2021/12/27 05:04:23;;;;;;;27.08;15.00;;;-0.10;99.90;;;;;;5081435;28;20049;-71
2021/12/27 05:06:48;;;;;;;27.70;14.43;;;-0.10;99.90;;;;;;5046556;28;20064;-71
2021/12/27 05:09:14;;;;;;;29.52;14.70;;;0.00;99.90;;;;;;5074986;28;20049;-72
2021/12/27 05:11:40;;;;;;;29.58;15.48;;;-0.10;99.90;;;;;;5050053;28;20095;-71
2021/12/27 05:14:07;;;;;;;28.55;15.07;;;-0.10;99.90;;;;;;5055452;28;20079;-72
2021/12/27 05:16:33;;;;;;;27.02;14.15;;;-0.10;99.90;;;;;;5057379;28;20044;-72
2021/12/27 05:18:59;;;;;;;26.25;15.63;;;-0.10;99.90;;;;;;5076362;28;20049;-72
2021/12/27 05:21:24;;;;;;;24.50;13.65;;;-0.10;99.90;;;;;;5091462;28;20052;-71
2021/12/27 05:23:50;;;;;;;29.23;16.08;;;-0.10;99.90;;;;;;5088677;28;20081;-71
2021/12/27 05:26:16;;;;;;;26.45;14.75;;;-0.10;99.90;;;;;;5056928;28;20051;-71
2021/12/27 05:28:42;;;;;;;34.45;16.67;;;-0.10;99.90;;;;;;5028105;28;20057;-71
2021/12/27 05:31:08;;;;;;;26.38;16.15;;;-0.10;99.90;;;;;;5083531;28;20481;-72
2021/12/27 05:33:34;;;;;;;29.58;14.80;;;-0.10;99.90;;;;;;5073300;28;20045;-71
2021/12/27 05:35:59;;;;;;;24.30;14.65;;;-0.10;99.90;;;;;;5075908;28;20077;-72
2021/12/27 05:38:25;;;;;;;25.13;14.43;;;-0.60;99.90;;;;;;5054369;28;20034;-71
2021/12/27 05:40:53;;;;;;;28.70;15.20;;;-0.10;99.90;;;;;;5084549;28;20084;-71
2021/12/27 05:43:23;;;;;;;27.63;13.73;;;-0.10;99.90;;;;;;5087027;28;20049;-71
2021/12/27 05:45:49;;;;;;;24.95;14.75;;;-0.10;99.90;;;;;;5049715;28;20128;-71
2021/12/27 05:48:15;;;;;;;24.35;14.02;;;0.10;99.90;;;;;;5054926;28;20095;-72
2021/12/27 05:50:42;;;;;;;29.75;16.33;;;0.30;99.90;;;;;;5090220;28;20096;-71
2021/12/27 05:53:08;;;;;;;24.77;14.55;;;0.00;99.90;;;;;;5054863;28;20049;-71
2021/12/27 05:55:33;;;;;;;27.58;14.50;;;0.00;99.90;;;;;;5055689;28;20099;-72
2021/12/27 05:58:00;;;;;;;26.90;15.93;;;-0.10;99.90;;;;;;5044045;28;20100;-71
2021/12/27 06:00:26;;;;;;;30.73;15.38;;;0.00;99.90;;;;;;5056617;28;20070;-71
2021/12/27 06:02:53;;;;;;;27.45;14.82;;;-0.10;99.90;;;;;;5057523;28;20037;-71
2021/12/27 06:05:19;;;;;;;30.27;15.27;;;-0.10;99.90;;;;;;5070941;28;20045;-72
2021/12/27 06:07:45;;;;;;;27.40;14.95;;;-0.10;99.90;;;;;;5053435;28;20069;-71
2021/12/27 06:10:12;;;;;;;27.35;14.73;;;0.00;99.90;;;;;;5038092;28;20766;-71
2021/12/27 06:12:39;;;;;;;28.83;15.40;;;-0.10;99.90;;;;;;5056418;28;20119;-71
2021/12/27 06:15:05;;;;;;;25.45;14.27;;;-0.10;99.90;;;;;;5058473;28;20655;-71
2021/12/27 06:17:32;;;;;;;29.50;16.15;;;-0.10;99.90;;;;;;5077927;28;20061;-71
2021/12/27 06:19:59;;;;;;;31.70;16.38;;;0.00;99.90;;;;;;5054249;28;20056;-71
2021/12/27 06:22:25;;;;;;;26.98;14.93;;;0.30;99.90;;;;;;5059679;28;20159;-72
2021/12/27 06:24:50;;;;;;;28.58;15.45;;;0.00;99.90;;;;;;5079039;28;20117;-71
2021/12/27 06:27:16;;;;;;;27.05;14.45;;;0.00;99.90;;;;;;5057666;28;20425;-72
2021/12/27 06:29:42;;;;;;;28.38;14.45;;;0.00;99.90;;;;;;5073910;28;20058;-71
2021/12/27 06:32:13;;;;;;;27.42;15.80;;;0.00;99.90;;;;;;5051003;28;20109;-72
2021/12/27 06:34:40;;;;;;;28.00;15.07;;;0.00;99.90;;;;;;5060032;28;20040;-72
2021/12/27 06:37:06;;;;;;;28.15;15.38;;;0.30;99.90;;;;;;5060833;28;20045;-71
2021/12/27 06:39:32;;;;;;;27.83;14.60;;;0.00;99.90;;;;;;5059336;28;20114;-71
2021/12/27 06:41:58;;;;;;;28.50;15.68;;;0.00;99.90;;;;;;5079688;28;20041;-71
2021/12/27 06:44:24;;;;;;;27.50;14.75;;;0.00;99.90;;;;;;5038458;28;20056;-71
2021/12/27 06:46:50;;;;;;;28.95;16.50;;;0.10;99.90;;;;;;5088578;28;20176;-71
2021/12/27 06:49:15;;;;;;;27.60;14.52;;;0.10;99.90;;;;;;5071485;28;20098;-71
2021/12/27 06:51:41;;;;;;;27.00;14.73;;;0.10;99.90;;;;;;5078618;28;20045;-71
2021/12/27 06:54:07;;;;;;;26.48;15.43;;;0.10;99.90;;;;;;5055651;28;20041;-71
2021/12/27 06:56:33;;;;;;;26.85;15.13;;;0.10;99.90;;;;;;5092668;28;20049;-71
2021/12/27 06:58:59;;;;;;;27.55;15.23;;;0.10;99.90;;;;;;5058977;28;20048;-71
2021/12/27 07:01:24;;;;;;;25.67;15.57;;;0.10;99.90;;;;;;5059127;28;20063;-71
2021/12/27 07:03:50;;;;;;;26.58;14.65;;;0.20;99.90;;;;;;5093521;28;20048;-71
2021/12/27 07:06:16;;;;;;;29.52;14.57;;;0.10;99.90;;;;;;5091021;28;20109;-71
2021/12/27 07:08:42;;;;;;;24.10;14.52;;;0.20;99.90;;;;;;5059891;28;20060;-71
2021/12/27 07:11:07;;;;;;;27.38;15.82;;;0.20;99.90;;;;;;5075186;28;20042;-71
2021/12/27 07:13:33;;;;;;;28.17;15.18;;;0.20;99.90;;;;;;5092953;28;20044;-71
2021/12/27 07:15:59;;;;;;;28.38;15.98;;;0.10;99.90;;;;;;5042468;28;20104;-72
2021/12/27 07:18:25;;;;;;;27.83;15.95;;;0.10;99.90;;;;;;5057399;28;20073;-71
2021/12/27 07:20:51;;;;;;;30.40;16.42;;;0.20;99.90;;;;;;5061142;28;20068;-71
2021/12/27 07:23:17;;;;;;;26.10;14.73;;;0.20;99.90;;;;;;5057423;28;20076;-71
2021/12/27 07:25:43;;;;;;;29.05;14.98;;;0.20;99.90;;;;;;5059680;28;20049;-71
2021/12/27 07:28:08;;;;;;;26.60;15.80;;;0.10;99.90;;;;;;5050157;28;20041;-71
2021/12/27 07:30:34;;;;;;;28.73;15.60;;;0.20;99.90;;;;;;5052766;28;20063;-71
2021/12/27 07:33:00;;;;;;;31.50;15.60;;;0.50;99.90;;;;;;5059868;28;20045;-71
2021/12/27 07:35:27;;;;;;;32.92;15.75;;;0.50;99.90;;;;;;5057364;28;20045;-71
2021/12/27 07:37:53;;;;;;;28.23;15.55;;;0.20;99.90;;;;;;5059037;28;20049;-71
2021/12/27 07:40:19;;;;;;;29.83;15.68;;;0.20;99.90;;;;;;5058262;28;20073;-71
2021/12/27 07:42:45;;;;;;;29.00;15.40;;;0.30;99.90;;;;;;5059467;28;20626;-71
2021/12/27 07:45:11;;;;;;;28.77;15.95;;;0.40;99.90;;;;;;5076406;28;20092;-71
2021/12/27 07:47:37;;;;;;;30.23;16.33;;;0.30;99.90;;;;;;5055103;28;20378;-71
2021/12/27 07:50:05;;;;;;;31.08;15.95;;;0.30;99.90;;;;;;5053296;28;20049;-70
2021/12/27 07:52:31;;;;;;;27.13;16.65;;;0.30;99.90;;;;;;5058342;28;20091;-71
2021/12/27 07:54:57;;;;;;;29.85;15.50;;;0.30;99.90;;;;;;5060248;28;20351;-70
2021/12/27 07:57:22;;;;;;;29.73;15.85;;;0.30;99.90;;;;;;5055874;28;20049;-71
2021/12/27 07:59:49;;;;;;;29.30;14.85;;;0.40;99.90;;;;;;5058718;28;20044;-71
2021/12/27 08:02:16;;;;;;;31.95;16.60;;;1.80;99.90;;;;;;5056607;28;20064;-71
2021/12/27 08:04:42;;;;;;;33.67;16.15;;;0.40;99.90;;;;;;5059708;28;20048;-71
2021/12/27 08:07:08;;;;;;;27.05;14.52;;;0.30;99.90;;;;;;5040800;28;20052;-70
2021/12/27 08:09:34;;;;;;;30.38;14.95;;;0.40;99.90;;;;;;5058340;28;20037;-71
2021/12/27 08:12:00;;;;;;;34.58;17.00;;;0.40;99.90;;;;;;5058497;28;20037;-71
2021/12/27 08:14:26;;;;;;;31.05;14.93;;;0.40;99.90;;;;;;5056362;28;20052;-71
2021/12/27 08:16:51;;;;;;;30.48;15.25;;;0.40;99.90;;;;;;5060463;28;20122;-71
2021/12/27 08:19:17;;;;;;;32.88;16.23;;;0.40;99.90;;;;;;5057101;28;20493;-71
2021/12/27 08:21:43;;;;;;;31.17;17.13;;;0.40;99.90;;;;;;5041756;28;20052;-71
2021/12/27 08:24:09;;;;;;;30.52;15.18;;;0.50;99.90;;;;;;5090840;28;20056;-71
2021/12/27 08:26:35;;;;;;;32.08;16.10;;;0.50;99.90;;;;;;5057008;28;20051;-71
2021/12/27 08:29:05;;;;;;;32.05;14.65;;;0.50;99.90;;;;;;5052058;28;20052;-71
2021/12/27 08:31:31;;;;;;;34.28;16.30;;;0.50;99.90;;;;;;5043266;28;20507;-71
2021/12/27 08:33:56;;;;;;;32.30;15.75;;;0.50;99.90;;;;;;5033887;28;20064;-71
2021/12/27 08:36:22;;;;;;;29.52;15.27;;;1.70;99.90;;;;;;5048008;28;20045;-71
2021/12/27 08:38:49;;;;;;;37.65;17.20;;;0.50;99.90;;;;;;5020967;28;20410;-71
2021/12/27 08:41:16;;;;;;;33.08;17.63;;;0.60;99.90;;;;;;5041682;28;20048;-71
2021/12/27 08:43:43;;;;;;;36.08;17.30;;;0.60;99.90;;;;;;5072080;28;20055;-71
2021/12/27 08:46:09;;;;;;;36.53;16.08;;;0.60;99.90;;;;;;5019451;28;20052;-71
2021/12/27 08:48:35;;;;;;;33.28;16.45;;;0.60;99.90;;;;;;5035336;28;20107;-71
2021/12/27 08:51:01;;;;;;;34.33;16.60;;;0.70;99.90;;;;;;5074213;28;20044;-71
2021/12/27 08:53:27;;;;;;;39.55;16.88;;;0.70;99.90;;;;;;5046552;28;20054;-72
2021/12/27 08:55:53;;;;;;;37.03;16.83;;;0.70;99.90;;;;;;5088040;28;20070;-72
2021/12/27 08:58:18;;;;;;;39.42;18.35;;;0.70;99.90;;;;;;5035980;28;20128;-71
2021/12/27 09:00:44;;;;;;;37.55;16.58;;;0.70;99.90;;;;;;5019390;28;20116;-72
2021/12/27 09:03:13;;;;;;;36.15;18.15;;;0.70;99.90;;;;;;5052782;28;20048;-72
2021/12/27 09:05:40;;;;;;;33.80;17.23;;;0.80;99.90;;;;;;5073402;28;20044;-72
2021/12/27 09:08:06;;;;;;;36.15;18.52;;;0.80;99.90;;;;;;5048891;28;20052;-72
2021/12/27 09:10:32;;;;;;;38.80;16.60;;;0.80;99.90;;;;;;5034838;28;20558;-72
2021/12/27 09:12:57;;;;;;;35.92;17.13;;;0.90;99.90;;;;;;5061602;28;20042;-72
2021/12/27 09:15:23;;;;;;;39.53;19.75;;;0.90;99.90;;;;;;5031199;28;20061;-71
2021/12/27 09:17:49;;;;;;;38.80;17.17;;;0.90;99.90;;;;;;5082753;28;20531;-71
2021/12/27 09:20:15;;;;;;;37.40;16.38;;;0.90;99.90;;;;;;5090103;28;20543;-71
2021/12/27 09:22:42;;;;;;;39.20;16.45;;;0.90;99.90;;;;;;5047558;28;20052;-71
2021/12/27 09:25:08;;;;;;;40.97;18.38;;;0.90;99.90;;;;;;5040344;28;20056;-71
2021/12/27 09:27:34;;;;;;;45.50;18.95;;;0.90;99.90;;;;;;5069332;28;20064;-71
2021/12/27 09:30:00;;;;;;;49.53;21.33;;;0.90;99.90;;;;;;5037910;28;20053;-71
2021/12/27 09:32:26;;;;;;;42.38;18.42;;;0.90;99.90;;;;;;5034042;28;20061;-71
2021/12/27 09:34:52;;;;;;;44.58;18.83;;;0.90;99.90;;;;;;5072397;28;20527;-71
2021/12/27 09:37:17;;;;;;;46.05;18.02;;;0.90;99.90;;;;;;5038815;28;20057;-71
2021/12/27 09:39:43;;;;;;;43.83;19.42;;;1.20;99.90;;;;;;5034527;28;20079;-71
2021/12/27 09:42:09;;;;;;;44.42;19.55;;;0.90;99.90;;;;;;5070825;28;20079;-71
2021/12/27 09:44:35;;;;;;;41.53;18.70;;;0.90;99.90;;;;;;5046784;28;20033;-72
2021/12/27 09:47:00;;;;;;;39.63;18.23;;;0.90;99.90;;;;;;5040782;28;20139;-71
2021/12/27 09:49:29;;;;;;;46.35;19.80;;;0.90;99.90;;;;;;5063724;28;20037;-70
2021/12/27 09:51:57;;;;;;;40.95;19.35;;;1.00;99.90;;;;;;5038912;28;20099;-71
2021/12/27 09:54:27;;;;;;;45.83;19.05;;;1.00;99.90;;;;;;5056188;28;20041;-71
2021/12/27 09:56:52;;;;;;;50.88;19.63;;;1.00;99.90;;;;;;5032946;28;20056;-72
2021/12/27 09:59:20;;;;;;;50.33;19.38;;;1.00;99.90;;;;;;5053779;28;20079;-72
2021/12/27 10:01:46;;;;;;;49.53;19.77;;;1.00;99.90;;;;;;5028967;28;20064;-72
2021/12/27 10:04:12;;;;;;;50.47;18.42;;;1.10;99.90;;;;;;5029867;28;20049;-72
2021/12/27 10:06:38;;;;;;;42.10;17.98;;;1.50;99.90;;;;;;5060387;28;20143;-71
2021/12/27 10:09:05;;;;;;;49.83;18.85;;;1.10;99.90;;;;;;5062808;28;20045;-72
2021/12/27 10:11:34;;;;;;;42.13;19.27;;;1.30;99.90;;;;;;5021173;28;20097;-71
2021/12/27 10:14:07;;;;;;;47.10;20.00;;;1.20;99.90;;;;;;5083577;28;20068;-72
2021/12/27 10:16:39;;;;;;;48.08;20.08;;;1.30;99.90;;;;;;5065566;28;20046;-71
2021/12/27 10:19:10;;;;;;;55.17;19.70;;;1.20;99.90;;;;;;5038461;28;20038;-71
2021/12/27 10:21:41;;;;;;;45.08;20.10;;;1.20;99.90;;;;;;5029426;28;20037;-72
2021/12/27 10:24:14;;;;;;;55.40;22.10;;;2.00;99.90;;;;;;5021681;28;20054;-71
2021/12/27 10:26:41;;;;;;;49.92;20.33;;;1.30;99.90;;;;;;5056395;28;20445;-71
2021/12/27 10:29:07;;;;;;;60.17;21.90;;;1.30;99.90;;;;;;4985488;28;1288166;-71
2021/12/27 10:31:57;;;;;;;47.35;20.55;;;1.30;99.90;;;;;;5030709;28;20059;-71
2021/12/27 10:34:27;;;;;;;53.95;19.55;;;1.50;99.90;;;;;;5038945;28;20058;-72
2021/12/27 10:37:23;;;;;;;49.03;20.85;;;1.40;99.90;;;;;;5022905;28;20410;-71
2021/12/27 10:39:50;;;;;;;49.63;19.63;;;1.40;99.90;;;;;;5023881;28;20414;-71
2021/12/27 10:42:21;;;;;;;49.38;19.30;;;1.40;99.90;;;;;;5021650;28;20050;-71
2021/12/27 10:44:49;;;;;;;48.30;21.00;;;1.50;99.90;;;;;;5015370;28;20120;-71
2021/12/27 10:47:31;;;;;;;54.38;19.00;;;1.50;99.90;;;;;;5032897;28;20104;-71
2021/12/27 10:50:04;;;;;;;49.08;19.90;;;1.50;99.90;;;;;;5022614;28;20050;-71
2021/12/27 10:52:55;;;;;;;45.00;20.08;;;1.60;99.90;;;;;;5034324;28;20045;-71
2021/12/27 10:55:26;;;;;;;61.20;20.45;;;1.60;99.90;;;;;;5035055;28;20085;-71
2021/12/27 10:58:07;;;;;;;52.85;20.23;;;1.50;99.90;;;;;;5020109;28;20050;-70
2021/12/27 11:00:32;;;;;;;53.50;21.02;;;1.60;99.90;;;;;;5059467;28;20041;-71
2021/12/27 11:03:02;;;;;;;57.17;21.02;;;1.60;99.90;;;;;;5035871;28;20048;-71
2021/12/27 11:05:29;;;;;;;57.25;22.67;;;1.60;99.90;;;;;;5037587;28;20678;-71
2021/12/27 11:08:01;;;;;;;52.50;20.30;;;2.10;99.90;;;;;;5072544;28;20552;-71
2021/12/27 11:10:29;;;;;;;48.75;20.42;;;1.50;99.90;;;;;;5070560;28;20056;-71
2021/12/27 11:12:59;;;;;;;61.60;24.77;;;1.60;99.90;;;;;;5041613;28;20141;-71
2021/12/27 11:15:27;;;;;;;58.95;22.70;;;1.60;99.90;;;;;;5025310;28;20045;-71
2021/12/27 11:17:54;;;;;;;63.95;23.70;;;1.60;99.90;;;;;;5052209;28;20584;-71
2021/12/27 11:20:21;;;;;;;67.65;22.33;;;1.70;99.90;;;;;;5031637;28;20050;-71
2021/12/27 11:22:49;;;;;;;57.97;21.55;;;1.90;99.90;;;;;;5028561;28;20437;-71
2021/12/27 11:25:21;;;;;;;58.10;21.17;;;1.60;99.90;;;;;;5070958;28;20085;-71
2021/12/27 11:27:47;;;;;;;55.50;21.70;;;1.70;99.90;;;;;;5044863;28;20076;-71
2021/12/27 11:30:16;;;;;;;55.78;22.60;;;1.70;99.90;;;;;;5028162;28;20049;-71
2021/12/27 11:33:14;;;;;;;64.95;24.85;;;2.10;99.90;;;;;;5054784;28;20421;-71
2021/12/27 11:36:05;;;;;;;71.07;21.55;;;1.70;99.90;;;;;;5011647;28;20089;-71
2021/12/27 11:38:32;;;;;;;60.05;22.02;;;1.70;99.90;;;;;;5043713;28;20060;-71
2021/12/27 11:40:59;;;;;;;59.90;21.83;;;1.70;99.90;;;;;;5088581;28;20049;-71
2021/12/27 11:43:55;;;;;;;53.35;21.17;;;1.70;99.90;;;;;;5053705;28;20053;-71
2021/12/27 11:46:23;;;;;;;66.63;23.80;;;1.70;99.90;;;;;;5034289;28;20044;-71
2021/12/27 11:48:51;;;;;;;72.18;22.98;;;2.40;99.90;;;;;;5049609;28;20068;-71
2021/12/27 11:51:31;;;;;;;68.43;21.88;;;1.80;99.90;;;;;;5061479;28;20050;-71
2021/12/27 11:53:59;;;;;;;62.33;21.92;;;1.80;99.90;;;;;;5052655;28;20068;-71
2021/12/27 11:57:00;;;;;;;70.72;22.67;;;1.80;99.90;;;;;;5040011;28;20088;-71
2021/12/27 11:59:26;;;;;;;66.57;21.98;;;1.80;99.90;;;;;;5036808;28;20105;-71
2021/12/27 12:01:56;;;;;;;66.68;22.05;;;1.80;99.90;;;;;;5065760;28;20081;-71
2021/12/27 12:04:45;;;;;;;67.70;23.83;;;1.80;99.90;;;;;;5050854;28;20109;-71
2021/12/27 12:07:34;;;;;;;80.93;22.75;;;1.90;99.90;;;;;;5025562;28;20093;-70
2021/12/27 12:10:03;;;;;;;80.53;23.50;;;1.90;99.90;;;;;;5027106;28;20057;-71
2021/12/27 12:12:29;;;;;;;63.33;22.55;;;2.00;99.90;;;;;;5050571;28;20041;-71
2021/12/27 12:14:59;;;;;;;74.72;22.63;;;1.90;99.90;;;;;;5047686;28;20065;-71
2021/12/27 12:17:44;;;;;;;70.03;23.45;;;2.40;99.90;;;;;;5056161;28;20042;-71
2021/12/27 12:20:26;;;;;;;65.82;23.63;;;1.90;99.90;;;;;;5034984;28;20053;-71
2021/12/27 12:23:07;;;;;;;69.07;23.80;;;2.10;99.90;;;;;;5049923;28;20133;-71
2021/12/27 12:25:33;;;;;;;68.78;23.80;;;2.30;99.90;;;;;;5062667;28;20052;-71
2021/12/27 12:28:08;;;;;;;59.22;22.52;;;2.00;99.90;;;;;;5019268;28;20966;-71
2021/12/27 12:30:40;;;;;;;63.97;22.90;;;2.10;99.90;;;;;;5069551;28;20064;-71
2021/12/27 12:33:09;;;;;;;68.57;22.02;;;2.10;99.90;;;;;;5033843;28;20065;-70
2021/12/27 12:35:37;;;;;;;66.75;23.15;;;2.10;99.90;;;;;;5015912;28;20064;-71
2021/12/27 12:38:32;;;;;;;67.93;22.30;;;2.20;99.90;;;;;;5059847;28;20045;-71
2021/12/27 12:41:15;;;;;;;53.80;21.10;;;2.20;99.90;;;;;;5045286;28;20070;-71